Time;durP1;ratioP1;P1;durP2;ratioP2;P2;SDS_P1;SDS_P2;PMS_P1;PMS_P2;Temp;Humidity;BMP_temperature;BMP_pressure;BME280_temperature;BME280_humidity;BME280_pressure;Samples;Min_cycle;Max_cycle;Signal;HPM_P1;HPM_P2
2022/03/05 00:04:12;;;;;;;38.43;17.33;;;;;;;0.77;100.00;99503.53;4877940;29;20199;-78
2022/03/05 00:09:33;;;;;;;36.73;16.50;;;;;;;0.93;100.00;99488.44;4900704;29;20209;-78
2022/03/05 00:12:05;;;;;;;35.23;14.93;;;;;;;1.00;100.00;99492.66;4918658;29;20206;-78
2022/03/05 00:14:37;;;;;;;36.97;15.10;;;;;;;0.95;100.00;99490.13;4913974;29;20225;-78
2022/03/05 00:17:11;;;;;;;37.33;15.03;;;;;;;0.58;100.00;99490.00;4915485;29;20205;-78
2022/03/05 00:19:50;;;;;;;40.13;16.40;;;;;;;0.77;100.00;99485.28;4943527;28;20216;-79
2022/03/05 00:22:34;;;;;;;40.93;16.80;;;;;;;0.81;100.00;99487.81;4930115;28;20227;-79
2022/03/05 00:25:12;;;;;;;35.40;14.93;;;;;;;0.86;100.00;99483.34;4973747;28;20225;-78
2022/03/05 00:27:47;;;;;;;37.97;15.73;;;;;;;0.74;100.00;99488.81;5095029;27;20190;-78
2022/03/05 00:30:28;;;;;;;39.83;16.20;;;;;;;0.80;100.00;99487.84;5097335;28;20199;-78
2022/03/05 00:33:02;;;;;;;43.57;17.50;;;;;;;0.68;100.00;99488.09;5051928;28;20193;-77
2022/03/05 00:38:21;;;;;;;38.50;15.93;;;;;;;0.67;100.00;99491.56;5030186;28;20197;-78
2022/03/05 00:40:50;;;;;;;36.57;16.13;;;;;;;0.65;100.00;99488.13;5025103;28;20213;-79
2022/03/05 00:43:21;;;;;;;38.40;15.53;;;;;;;0.73;100.00;99481.88;5049075;28;20774;-79
2022/03/05 00:45:50;;;;;;;38.43;16.10;;;;;;;0.47;100.00;99477.13;5041629;28;20197;-79
2022/03/05 00:48:18;;;;;;;42.60;16.40;;;;;;;0.56;100.00;99483.94;5065589;28;20184;-79
2022/03/05 00:50:48;;;;;;;36.83;15.63;;;;;;;0.53;100.00;99484.00;5093656;28;20187;-79
2022/03/05 00:53:18;;;;;;;36.80;14.50;;;;;;;0.47;100.00;99481.50;5109397;28;20194;-78
2022/03/05 00:55:47;;;;;;;40.23;16.43;;;;;;;0.36;100.00;99483.44;5110289;28;20221;-78
2022/03/05 00:58:17;;;;;;;36.90;15.40;;;;;;;0.34;100.00;99482.59;5104865;28;20286;-78
2022/03/05 01:00:49;;;;;;;41.97;15.53;;;;;;;0.44;100.00;99477.19;5101826;28;20247;-78
2022/03/05 01:03:17;;;;;;;34.07;14.87;;;;;;;0.40;100.00;99474.69;5122254;27;20217;-78
2022/03/05 01:05:46;;;;;;;39.13;16.03;;;;;;;0.19;100.00;99473.28;5128792;27;20187;-78
2022/03/05 01:08:17;;;;;;;34.37;14.70;;;;;;;0.41;100.00;99476.41;5132644;27;20299;-78
2022/03/05 01:10:46;;;;;;;32.57;13.93;;;;;;;0.37;100.00;99475.59;5129632;27;20186;-78
2022/03/05 01:13:14;;;;;;;36.63;15.50;;;;;;;0.34;100.00;99480.00;5128926;27;20206;-78
2022/03/05 01:15:42;;;;;;;37.33;15.03;;;;;;;0.49;100.00;99472.78;5134229;27;20210;-78
2022/03/05 01:18:13;;;;;;;37.03;14.77;;;;;;;0.49;100.00;99470.19;5129016;27;20198;-78
2022/03/05 01:20:42;;;;;;;36.43;16.07;;;;;;;0.28;100.00;99466.19;5130586;27;20187;-78
2022/03/05 01:23:12;;;;;;;35.27;14.93;;;;;;;0.25;100.00;99471.47;5132817;27;20277;-78
2022/03/05 01:25:40;;;;;;;37.30;15.10;;;;;;;0.29;100.00;99467.06;5131893;27;20243;-78
2022/03/05 01:28:09;;;;;;;39.97;15.97;;;;;;;0.26;100.00;99464.50;5134058;27;20187;-78
2022/03/05 01:30:37;;;;;;;39.97;15.37;;;;;;;0.35;100.00;99458.28;5132386;27;20675;-78
2022/03/05 01:33:06;;;;;;;35.80;15.60;;;;;;;0.10;100.00;99461.31;5131099;27;20200;-78
2022/03/05 01:35:39;;;;;;;34.77;15.13;;;;;;;0.08;100.00;99468.28;5127453;28;20237;-78
2022/03/05 01:38:07;;;;;;;32.30;14.30;;;;;;;-0.07;100.00;99464.19;5132426;28;20205;-78
2022/03/05 01:40:36;;;;;;;41.17;15.20;;;;;;;-0.03;100.00;99483.22;5131476;28;20202;-77
2022/03/05 01:43:04;;;;;;;37.40;15.70;;;;;;;-0.07;100.00;99473.75;5168029;27;20224;-77
2022/03/05 01:45:32;;;;;;;35.63;15.30;;;;;;;-0.07;100.00;99471.16;5171289;27;20248;-78
2022/03/05 01:48:02;;;;;;;38.53;16.27;;;;;;;-0.20;100.00;99473.06;5125939;28;20198;-77
2022/03/05 01:50:31;;;;;;;39.27;14.97;;;;;;;-0.14;100.00;99469.50;5128432;28;20190;-78
2022/03/05 01:53:01;;;;;;;39.33;15.73;;;;;;;-0.27;100.00;99470.59;5127866;28;20198;-78
2022/03/05 01:55:31;;;;;;;38.40;15.57;;;;;;;-0.11;100.00;99465.09;5128708;28;20778;-78
2022/03/05 01:57:59;;;;;;;35.93;14.47;;;;;;;-0.25;100.00;99471.44;5125702;28;20292;-78
2022/03/05 02:00:29;;;;;;;34.77;14.23;;;;;;;-0.26;100.00;99464.50;5131797;28;20183;-78
2022/03/05 02:02:58;;;;;;;38.30;15.60;;;;;;;-0.23;100.00;99467.91;5072802;28;20208;-77
2022/03/05 02:05:27;;;;;;;39.37;15.57;;;;;;;-0.38;100.00;99473.38;5136533;27;20276;-78
2022/03/05 02:07:56;;;;;;;43.80;17.17;;;;;;;-0.57;100.00;99471.91;5171193;27;20188;-78
2022/03/05 02:10:33;;;;;;;38.80;15.03;;;;;;;-0.46;100.00;99465.66;5168554;27;20197;-78
2022/03/05 02:13:02;;;;;;;40.47;15.13;;;;;;;-0.55;100.00;99467.53;5166550;27;20193;-78
2022/03/05 02:15:32;;;;;;;36.97;14.60;;;;;;;-0.46;100.00;99470.88;5173283;27;20228;-79
2022/03/05 02:18:01;;;;;;;37.63;15.07;;;;;;;-0.28;100.00;99461.06;5171081;27;20253;-78
2022/03/05 02:20:31;;;;;;;37.13;16.13;;;;;;;-0.49;100.00;99462.22;5167675;27;20290;-78
2022/03/05 02:23:00;;;;;;;36.63;15.60;;;;;;;-0.57;100.00;99470.16;5173320;27;20197;-78
2022/03/05 02:25:28;;;;;;;39.67;15.13;;;;;;;-0.52;100.00;99463.16;5114767;28;20293;-78
2022/03/05 02:27:58;;;;;;;38.37;14.73;;;;;;;-0.50;100.00;99470.91;5108812;28;20765;-78
2022/03/05 02:30:28;;;;;;;39.03;14.73;;;;;;;-0.47;100.00;99466.56;5110778;28;20192;-78
2022/03/05 02:32:56;;;;;;;32.80;15.00;;;;;;;-0.39;100.00;99456.88;5104751;28;20199;-78
2022/03/05 02:35:25;;;;;;;37.23;14.53;;;;;;;-0.50;100.00;99465.72;5108270;28;20242;-77
2022/03/05 02:37:56;;;;;;;40.10;15.37;;;;;;;-0.38;100.00;99465.56;5107171;28;20199;-78
2022/03/05 02:40:26;;;;;;;35.50;14.73;;;;;;;-0.39;100.00;99459.47;5106550;28;20199;-78
2022/03/05 02:42:57;;;;;;;32.33;14.83;;;;;;;-0.42;100.00;99462.13;5079701;27;20220;-78
2022/03/05 02:45:25;;;;;;;37.80;15.43;;;;;;;-0.53;100.00;99464.03;5126855;27;20220;-78
2022/03/05 02:47:55;;;;;;;36.90;14.57;;;;;;;-0.56;100.00;99465.81;5125897;27;20294;-78
2022/03/05 02:50:25;;;;;;;37.60;14.73;;;;;;;-0.58;100.00;99465.81;5122972;27;20194;-78
2022/03/05 02:52:59;;;;;;;36.57;15.10;;;;;;;-0.53;100.00;99470.97;5129572;27;20202;-78
2022/03/05 02:55:27;;;;;;;35.47;14.30;;;;;;;-0.63;100.00;99468.50;5124903;27;20206;-78
2022/03/05 02:57:56;;;;;;;39.63;15.13;;;;;;;-0.56;100.00;99464.09;5134779;27;20708;-79
2022/03/05 03:00:24;;;;;;;35.47;14.67;;;;;;;-0.56;100.00;99471.03;5133635;27;20265;-78
2022/03/05 03:02:53;;;;;;;36.50;14.57;;;;;;;-0.60;100.00;99472.78;5148361;27;20193;-78
2022/03/05 03:05:22;;;;;;;37.03;15.70;;;;;;;-0.57;100.00;99467.56;5154962;27;20645;-78
2022/03/05 03:07:51;;;;;;;37.90;14.60;;;;;;;-0.55;100.00;99472.75;5157457;27;20197;-78
2022/03/05 03:10:22;;;;;;;33.33;14.60;;;;;;;-0.62;100.00;99461.56;5158058;27;20193;-78
2022/03/05 03:12:50;;;;;;;34.73;14.00;;;;;;;-0.69;100.00;99465.13;5152174;27;20186;-78
2022/03/05 03:15:19;;;;;;;34.63;14.47;;;;;;;-0.72;100.00;99462.56;5154327;27;20193;-78
2022/03/05 03:17:49;;;;;;;40.10;15.90;;;;;;;-0.61;100.00;99461.53;5164865;27;20186;-78
2022/03/05 03:20:19;;;;;;;36.40;15.23;;;;;;;-0.74;100.00;99465.19;5155734;27;20209;-78
2022/03/05 03:22:48;;;;;;;38.20;15.67;;;;;;;-0.74;100.00;99460.00;5156966;27;20186;-77
2022/03/05 03:25:17;;;;;;;39.17;14.90;;;;;;;-0.75;100.00;99460.88;5156878;27;20217;-78
2022/03/05 03:27:47;;;;;;;34.13;15.03;;;;;;;-0.83;100.00;99480.91;5152376;27;20190;-80
2022/03/05 03:30:17;;;;;;;36.63;14.13;;;;;;;-0.62;100.00;99465.00;5155617;27;20218;-78
2022/03/05 03:32:46;;;;;;;36.47;15.43;;;;;;;-0.72;100.00;99465.16;5154366;27;20194;-78
2022/03/05 03:35:16;;;;;;;38.17;14.47;;;;;;;-0.73;100.00;99469.50;5156410;27;20231;-78
2022/03/05 03:37:45;;;;;;;34.13;14.77;;;;;;;-0.73;100.00;99468.66;5148279;27;20222;-78
2022/03/05 03:40:15;;;;;;;34.60;14.43;;;;;;;-0.75;100.00;99475.63;5151124;27;20198;-78
2022/03/05 03:42:47;;;;;;;38.87;15.50;;;;;;;-0.73;100.00;99476.44;5171031;27;20229;-79
2022/03/05 03:45:17;;;;;;;36.50;15.50;;;;;;;-0.77;100.00;99467.84;5169209;27;20205;-79
2022/03/05 03:47:47;;;;;;;34.40;14.03;;;;;;;-0.69;100.00;99473.78;5168743;27;20212;-79
2022/03/05 03:50:19;;;;;;;37.17;15.50;;;;;;;-0.74;100.00;99475.59;5173957;27;20185;-78
2022/03/05 03:52:47;;;;;;;41.43;15.33;;;;;;;-0.69;100.00;99471.16;5167342;27;20242;-77
2022/03/05 03:55:18;;;;;;;32.63;14.07;;;;;;;-0.69;100.00;99473.78;5169673;27;20193;-78
2022/03/05 03:57:49;;;;;;;35.97;14.57;;;;;;;-0.76;100.00;99472.16;5174146;27;20213;-78
2022/03/05 04:00:19;;;;;;;35.30;14.27;;;;;;;-0.71;100.00;99465.13;5173531;27;20191;-78
2022/03/05 04:02:49;;;;;;;31.90;13.03;;;;;;;-0.82;100.00;99474.81;5166232;27;20200;-78
2022/03/05 04:05:18;;;;;;;35.67;14.07;;;;;;;-0.88;100.00;99477.50;5171779;27;20699;-78
2022/03/05 04:10:34;;;;;;;35.67;14.80;;;;;;;-0.97;100.00;99473.25;5176998;27;20616;-78
2022/03/05 04:13:04;;;;;;;34.87;14.60;;;;;;;-1.07;100.00;99474.25;5166452;27;20220;-78
2022/03/05 04:15:33;;;;;;;33.37;14.37;;;;;;;-1.09;100.00;99473.44;5169660;27;20189;-78
2022/03/05 04:18:01;;;;;;;31.43;13.23;;;;;;;-0.99;100.00;99475.03;5172789;27;20209;-78
2022/03/05 04:20:30;;;;;;;35.20;13.57;;;;;;;-0.98;100.00;99471.56;5171545;27;20276;-78
2022/03/05 04:22:58;;;;;;;33.23;13.70;;;;;;;-0.87;100.00;99468.81;5173981;27;20191;-78
2022/03/05 04:25:27;;;;;;;41.87;15.63;;;;;;;-0.96;100.00;99462.03;5166777;27;20204;-78
2022/03/05 04:27:56;;;;;;;35.07;14.33;;;;;;;-1.08;100.00;99472.53;5173685;27;20189;-78
2022/03/05 04:30:26;;;;;;;35.07;14.40;;;;;;;-1.03;100.00;99460.38;5107077;28;20195;-77
2022/03/05 04:32:55;;;;;;;36.10;14.90;;;;;;;-1.08;100.00;99464.75;5103798;28;20217;-78
2022/03/05 04:35:24;;;;;;;35.90;14.50;;;;;;;-1.22;100.00;99464.94;5103240;28;20195;-78
2022/03/05 04:37:54;;;;;;;34.97;13.93;;;;;;;-1.24;100.00;99466.69;5103573;28;20264;-78
2022/03/05 04:40:23;;;;;;;35.07;14.73;;;;;;;-1.26;100.00;99475.34;5060475;28;20194;-78
2022/03/05 04:42:54;;;;;;;37.63;15.60;;;;;;;-1.29;100.00;99468.47;5105088;28;20249;-78
2022/03/05 04:45:23;;;;;;;35.70;14.30;;;;;;;-1.29;100.00;99471.06;5102758;28;20697;-78
2022/03/05 04:47:55;;;;;;;38.13;15.03;;;;;;;-1.26;100.00;99485.75;5119842;27;20219;-78
2022/03/05 04:50:25;;;;;;;34.33;14.20;;;;;;;-1.41;100.00;99475.53;5166837;27;20669;-78
2022/03/05 04:52:53;;;;;;;30.47;13.47;;;;;;;-1.60;100.00;99485.25;5170005;27;20197;-78
2022/03/05 04:55:23;;;;;;;31.80;13.93;;;;;;;-1.63;100.00;99491.34;5167174;27;20655;-78
2022/03/05 04:57:51;;;;;;;34.93;14.23;;;;;;;-1.52;100.00;99488.63;5170108;27;20415;-77
2022/03/05 05:00:20;;;;;;;36.00;14.30;;;;;;;-1.64;100.00;99488.72;5173299;27;20199;-78
2022/03/05 05:02:50;;;;;;;30.47;13.30;;;;;;;-1.52;100.00;99492.09;5169061;27;20201;-78
2022/03/05 05:05:24;;;;;;;31.33;13.73;;;;;;;-1.54;100.00;99491.25;5125703;27;20198;-78
2022/03/05 05:07:53;;;;;;;35.00;14.00;;;;;;;-1.46;100.00;99492.00;5084946;28;20195;-78
2022/03/05 05:10:22;;;;;;;34.17;13.63;;;;;;;-1.68;100.00;99493.09;5085575;28;20270;-78
2022/03/05 05:12:51;;;;;;;32.97;13.73;;;;;;;-1.51;100.00;99495.56;5085575;28;20215;-78
2022/03/05 05:15:19;;;;;;;33.43;14.10;;;;;;;-1.65;100.00;99498.25;5086741;28;20223;-78
2022/03/05 05:17:48;;;;;;;34.10;14.33;;;;;;;-1.54;100.00;99498.19;5082785;28;20752;-78
2022/03/05 05:20:17;;;;;;;35.67;14.37;;;;;;;-1.54;100.00;99495.59;5083593;28;20188;-78
2022/03/05 05:22:48;;;;;;;38.73;15.07;;;;;;;-1.53;100.00;99497.31;5055771;28;20199;-78
2022/03/05 05:25:17;;;;;;;38.77;14.93;;;;;;;-1.50;100.00;99492.06;5089520;28;20195;-77
2022/03/05 05:27:46;;;;;;;36.03;15.07;;;;;;;-1.48;100.00;99495.50;5107971;28;20191;-78
2022/03/05 05:30:16;;;;;;;33.43;13.87;;;;;;;-1.43;100.00;99498.94;5108148;28;20198;-77
2022/03/05 05:32:44;;;;;;;32.13;13.80;;;;;;;-1.41;100.00;99498.91;5118912;27;20237;-78
2022/03/05 05:35:15;;;;;;;37.00;14.47;;;;;;;-1.52;100.00;99502.50;5134090;27;20201;-78
2022/03/05 05:37:44;;;;;;;34.93;13.63;;;;;;;-1.55;100.00;99510.28;5171603;27;20236;-78
2022/03/05 05:40:14;;;;;;;35.67;15.10;;;;;;;-1.60;100.00;99512.09;5169603;27;20205;-78
2022/03/05 05:42:44;;;;;;;34.03;14.83;;;;;;;-1.55;100.00;99517.22;5170464;27;20228;-78
2022/03/05 05:45:13;;;;;;;32.73;13.43;;;;;;;-1.51;100.00;99518.94;5164666;27;20189;-78
2022/03/05 05:47:43;;;;;;;34.17;13.40;;;;;;;-1.50;100.00;99518.03;5069675;28;20196;-78
2022/03/05 05:50:12;;;;;;;36.90;14.27;;;;;;;-1.76;100.00;99524.31;5070255;28;20211;-78
2022/03/05 05:52:43;;;;;;;35.00;13.93;;;;;;;-1.65;100.00;99521.63;5071673;28;20200;-78
2022/03/05 05:55:15;;;;;;;34.10;14.17;;;;;;;-1.62;100.00;99532.00;5072108;28;20356;-78
2022/03/05 05:57:44;;;;;;;38.23;15.17;;;;;;;-1.69;100.00;99529.47;5071219;28;20413;-78
2022/03/05 06:00:14;;;;;;;38.43;14.53;;;;;;;-1.61;100.00;99525.09;5068456;28;20241;-78
2022/03/05 06:02:42;;;;;;;32.40;14.37;;;;;;;-1.62;100.00;99538.94;5067459;28;20212;-78
2022/03/05 06:05:11;;;;;;;39.07;15.37;;;;;;;-1.63;100.00;99538.09;5081525;28;20288;-78
2022/03/05 06:07:40;;;;;;;34.30;14.00;;;;;;;-1.61;100.00;99541.53;5115108;28;20195;-78
2022/03/05 06:10:10;;;;;;;35.57;15.27;;;;;;;-1.73;100.00;99546.81;5109674;28;20198;-78
2022/03/05 06:12:40;;;;;;;40.33;16.10;;;;;;;-1.61;100.00;99540.66;5097518;27;20196;-79
2022/03/05 06:15:11;;;;;;;36.97;15.10;;;;;;;-1.81;100.00;99540.84;5137076;27;20236;-78
2022/03/05 06:17:42;;;;;;;34.70;14.47;;;;;;;-1.78;100.00;99543.41;5128853;27;20226;-78
2022/03/05 06:20:11;;;;;;;36.20;15.90;;;;;;;-1.75;100.00;99536.44;5133078;27;20206;-78
2022/03/05 06:22:40;;;;;;;33.83;14.07;;;;;;;-1.60;100.00;99537.19;5131117;27;20281;-78
2022/03/05 06:25:09;;;;;;;38.67;16.47;;;;;;;-1.62;100.00;99536.34;5126526;27;20190;-78
2022/03/05 06:27:38;;;;;;;36.30;14.37;;;;;;;-1.55;100.00;99535.41;5129354;27;20191;-78
2022/03/05 06:30:11;;;;;;;38.00;16.00;;;;;;;-1.55;100.00;99541.44;5127292;27;20194;-78
2022/03/05 06:32:39;;;;;;;32.40;14.13;;;;;;;-1.56;100.00;99539.72;5134169;27;20190;-78
2022/03/05 06:35:09;;;;;;;35.43;14.67;;;;;;;-1.43;100.00;99535.31;5127347;27;20286;-78
2022/03/05 06:37:38;;;;;;;38.83;15.37;;;;;;;-1.43;100.00;99543.09;5132573;27;20217;-78
2022/03/05 06:40:11;;;;;;;37.77;16.13;;;;;;;-1.61;100.00;99543.25;5127688;27;20190;-78
2022/03/05 06:42:41;;;;;;;39.20;18.87;;;;;;;-1.60;100.00;99538.03;5127935;27;20237;-78
2022/03/05 06:45:11;;;;;;;45.57;19.40;;;;;;;-1.59;100.00;99546.69;5157608;27;20189;-78
2022/03/05 06:47:39;;;;;;;35.57;16.23;;;;;;;-1.66;100.00;99542.41;5151976;27;20230;-78
2022/03/05 06:50:11;;;;;;;36.17;16.13;;;;;;;-1.49;100.00;99540.53;5149369;27;20201;-78
2022/03/05 06:52:39;;;;;;;42.53;17.40;;;;;;;-1.58;100.00;99544.09;5154812;27;20197;-78
2022/03/05 06:55:13;;;;;;;34.27;15.17;;;;;;;-1.43;100.00;99545.69;5154035;27;20664;-78
2022/03/05 06:57:42;;;;;;;36.33;14.47;;;;;;;-1.43;100.00;99550.88;5154301;27;20220;-78
2022/03/05 07:00:15;;;;;;;35.53;14.47;;;;;;;-1.21;100.00;99565.38;5157015;27;20201;-78
2022/03/05 07:02:44;;;;;;;34.77;15.23;;;;;;;-1.21;100.00;99564.53;5134115;27;20186;-78
2022/03/05 07:05:17;;;;;;;35.97;15.43;;;;;;;-1.11;100.00;99570.50;5150999;27;20198;-78
2022/03/05 07:07:45;;;;;;;32.73;14.83;;;;;;;-1.01;100.00;99567.78;5070493;28;20197;-78
2022/03/05 07:10:14;;;;;;;36.53;14.87;;;;;;;-1.08;100.00;99573.91;4986247;28;20204;-78
2022/03/05 07:12:42;;;;;;;33.67;13.47;;;;;;;-0.99;100.00;99571.22;4986379;28;20191;-78
2022/03/05 07:15:11;;;;;;;34.63;14.97;;;;;;;-0.81;100.00;99577.09;4994069;28;20203;-78
2022/03/05 07:17:49;;;;;;;34.80;14.70;;;;;;;-0.89;100.00;99572.84;4987742;28;20210;-78
2022/03/05 07:20:28;;;;;;;34.10;15.67;;;;;;;-0.74;100.00;99578.75;4984867;28;20195;-79
2022/03/05 07:22:57;;;;;;;36.20;15.70;;;;;;;-0.75;100.00;99575.28;4985680;28;20226;-78
2022/03/05 07:25:26;;;;;;;37.60;17.07;;;;;;;-0.65;100.00;99581.25;4924389;28;20193;-78
2022/03/05 07:27:54;;;;;;;36.47;15.63;;;;;;;-0.55;100.00;99579.41;5027778;28;20205;-78
2022/03/05 07:30:22;;;;;;;33.67;15.20;;;;;;;-0.46;100.00;99579.28;5061621;28;20208;-78
2022/03/05 07:32:54;;;;;;;35.53;16.33;;;;;;;-0.34;100.00;99581.72;5064108;28;20196;-78
2022/03/05 07:35:23;;;;;;;38.10;15.83;;;;;;;-0.35;100.00;99586.06;5065264;28;20204;-78
2022/03/05 07:37:54;;;;;;;40.53;16.53;;;;;;;-0.38;100.00;99582.66;4990851;28;20292;-78
2022/03/05 07:40:22;;;;;;;37.67;16.20;;;;;;;-0.09;100.00;99583.13;4961665;28;20191;-78
2022/03/05 07:42:52;;;;;;;37.20;16.13;;;;;;;-0.12;100.00;99577.06;5006533;28;20660;-78
2022/03/05 07:45:20;;;;;;;38.20;15.73;;;;;;;-0.07;100.00;99580.47;5044612;28;20201;-78
2022/03/05 07:47:51;;;;;;;36.27;15.87;;;;;;;0.05;100.00;99575.09;5043570;28;20356;-78
2022/03/05 07:50:22;;;;;;;32.60;15.57;;;;;;;0.01;100.00;99580.38;5047476;28;20292;-78
2022/03/05 07:52:53;;;;;;;38.80;15.70;;;;;;;0.09;100.00;99578.50;5052447;28;20197;-78
2022/03/05 07:55:21;;;;;;;35.77;17.10;;;;;;;0.27;100.00;99581.69;5022943;28;20208;-78
2022/03/05 07:57:53;;;;;;;42.93;16.93;;;;;;;0.19;100.00;99583.56;5065984;28;20375;-78
2022/03/05 08:00:21;;;;;;;40.20;16.17;;;;;;;0.47;100.00;99577.91;5072428;28;20646;-78
2022/03/05 08:02:51;;;;;;;36.60;16.03;;;;;;;0.36;100.00;99588.50;5068599;28;20192;-78
2022/03/05 08:05:23;;;;;;;35.70;16.50;;;;;;;0.60;100.00;99594.22;5072400;28;20196;-78
2022/03/05 08:07:54;;;;;;;36.93;15.90;;;;;;;0.53;100.00;99589.09;5067407;28;20276;-77
2022/03/05 08:10:23;;;;;;;33.67;15.63;;;;;;;0.83;100.00;99590.31;5064508;28;20280;-78
2022/03/05 08:12:52;;;;;;;33.20;15.73;;;;;;;1.08;100.00;99592.50;5071066;28;20203;-78
2022/03/05 08:15:23;;;;;;;35.97;15.97;;;;;;;1.00;100.00;99596.97;5108908;28;20633;-78
2022/03/05 08:17:54;;;;;;;35.40;16.47;;;;;;;1.18;100.00;99590.56;5110398;28;20194;-78
2022/03/05 08:20:25;;;;;;;34.90;16.27;;;;;;;1.18;100.00;99595.78;5110560;28;20215;-78
2022/03/05 08:22:54;;;;;;;34.87;16.57;;;;;;;1.37;100.00;99589.31;5111542;28;20183;-78
2022/03/05 08:25:25;;;;;;;39.20;16.33;;;;;;;1.41;100.00;99590.97;5108685;28;20223;-78
2022/03/05 08:27:54;;;;;;;41.57;16.70;;;;;;;1.42;100.00;99595.28;5114303;28;20191;-78
2022/03/05 08:30:25;;;;;;;34.57;15.80;;;;;;;1.27;100.00;99599.06;5113094;28;20198;-79
2022/03/05 08:32:53;;;;;;;34.80;16.50;;;;;;;1.51;100.00;99594.25;5113833;28;20278;-78
2022/03/05 08:35:25;;;;;;;33.77;17.23;;;;;;;1.69;100.00;99601.72;5114244;28;20194;-79
2022/03/05 08:37:54;;;;;;;34.40;16.63;;;;;;;1.56;100.00;99593.28;5113042;28;20187;-78
2022/03/05 08:40:23;;;;;;;34.33;16.17;;;;;;;1.94;100.00;99597.69;5110121;28;20214;-79
2022/03/05 08:42:51;;;;;;;37.47;17.27;;;;;;;1.96;100.00;99595.03;5143486;27;20241;-79
2022/03/05 08:45:26;;;;;;;31.53;16.23;;;;;;;2.24;100.00;99593.53;5151461;27;20209;-79
2022/03/05 08:47:57;;;;;;;28.17;15.47;;;;;;;2.53;100.00;99598.06;5151330;27;20205;-78
2022/03/05 08:50:27;;;;;;;35.80;17.43;;;;;;;2.51;100.00;99593.72;5149203;27;20189;-79
2022/03/05 08:52:56;;;;;;;34.23;17.33;;;;;;;2.27;100.00;99596.06;5109021;27;20186;-79
2022/03/05 08:55:26;;;;;;;31.67;17.47;;;;;;;2.82;100.00;99584.25;5146701;27;20190;-79
2022/03/05 08:57:55;;;;;;;31.60;17.30;;;;;;;3.11;100.00;99587.84;5152708;27;20200;-79
2022/03/05 09:00:23;;;;;;;30.50;17.13;;;;;;;3.42;100.00;99585.25;5143096;27;20213;-78
2022/03/05 09:02:52;;;;;;;28.23;16.77;;;;;;;2.95;100.00;99586.53;5144251;27;20208;-79
2022/03/05 09:05:21;;;;;;;28.53;16.50;;;;;;;3.23;100.00;99584.91;5152549;27;20668;-79
2022/03/05 09:07:53;;;;;;;28.43;17.33;;;;;;;3.05;100.00;99586.25;5148446;27;20197;-79
2022/03/05 09:10:22;;;;;;;30.37;17.30;;;;;;;3.17;100.00;99585.06;5148981;27;20208;-79
2022/03/05 09:12:53;;;;;;;28.10;16.10;;;;;;;3.74;100.00;99576.47;5152223;27;20186;-79
2022/03/05 09:15:21;;;;;;;28.47;16.27;;;;;;;3.82;100.00;99574.47;5148421;27;20189;-78
2022/03/05 09:17:50;;;;;;;26.60;15.90;;;;;;;3.95;100.00;99567.09;5083114;28;20283;-78
2022/03/05 09:20:20;;;;;;;26.53;14.73;;;;;;;4.26;100.00;99570.50;5090588;28;20222;-78
2022/03/05 09:22:52;;;;;;;27.33;15.53;;;;;;;4.40;100.00;99564.78;5090217;28;20281;-78
2022/03/05 09:25:20;;;;;;;29.40;17.33;;;;;;;4.53;100.00;99568.72;5057035;28;20707;-78
2022/03/05 09:27:52;;;;;;;33.57;19.70;;;;;;;4.58;100.00;99571.22;5049500;28;20201;-79
2022/03/05 09:30:22;;;;;;;26.33;15.23;;;;;;;4.63;100.00;99565.78;5047060;28;20197;-78
2022/03/05 09:32:50;;;;;;;26.70;16.47;;;;;;;4.74;100.00;99566.31;5045967;28;20201;-79
2022/03/05 09:35:21;;;;;;;25.50;16.27;;;;;;;4.95;100.00;99564.72;5056315;28;20250;-79
2022/03/05 09:37:52;;;;;;;26.03;14.90;;;;;;;5.17;100.00;99568.31;5110706;28;20191;-78
2022/03/05 09:40:21;;;;;;;24.47;15.87;;;;;;;5.20;100.00;99562.09;5107043;28;20222;-78
2022/03/05 09:42:53;;;;;;;23.97;14.80;;;;;;;5.35;100.00;99562.41;5111622;28;20222;-79
2022/03/05 09:45:25;;;;;;;28.27;18.00;;;;;;;5.40;100.00;99564.84;5116901;27;20217;-79
2022/03/05 09:47:56;;;;;;;22.83;13.67;;;;;;;5.58;100.00;99564.16;5146828;27;20675;-79
2022/03/05 09:50:28;;;;;;;18.97;12.27;;;;;;;5.75;100.00;99564.41;5146110;27;20200;-79
2022/03/05 09:52:59;;;;;;;18.93;11.93;;;;;;;5.70;100.00;99568.13;5153442;27;20208;-78
2022/03/05 09:55:27;;;;;;;22.13;12.37;;;;;;;5.51;100.00;99569.72;5115796;27;20193;-78
2022/03/05 09:57:57;;;;;;;20.63;11.73;;;;;;;5.90;100.00;99570.91;5153577;27;20288;-79
2022/03/05 10:00:30;;;;;;;20.60;12.60;;;;;;;6.03;100.00;99568.63;5116057;27;20273;-78
2022/03/05 10:03:01;;;;;;;21.93;13.00;;;;;;;6.17;100.00;99566.31;5170575;27;20269;-78
2022/03/05 10:05:32;;;;;;;20.43;13.43;;;;;;;6.20;100.00;99563.59;5171540;27;20264;-79
2022/03/05 10:08:13;;;;;;;21.97;13.47;;;;;;;6.31;100.00;99555.25;5171930;27;20181;-79
2022/03/05 10:10:51;;;;;;;19.27;12.77;;;;;;;6.37;100.00;99559.41;5126491;27;20194;-79
2022/03/05 10:13:24;;;;;;;21.53;12.60;;;;;;;6.00;100.00;99558.25;5130511;28;20198;-78
2022/03/05 10:15:54;;;;;;;22.60;13.03;;;;;;;6.49;100.00;99556.28;5126146;27;20191;-78
2022/03/05 10:18:31;;;;;;;20.07;12.80;;;;;;;6.66;100.00;99548.56;5119289;28;20590;-79
2022/03/05 10:21:01;;;;;;;23.23;13.23;;;;;;;6.94;100.00;99544.75;5127233;28;20246;-79
2022/03/05 10:23:36;;;;;;;20.67;12.77;;;;;;;6.48;100.00;99555.44;5126951;27;20298;-79
2022/03/05 10:26:06;;;;;;;20.20;13.43;;;;;;;5.42;100.00;99558.66;5119774;27;20190;-79
2022/03/05 10:28:39;;;;;;;20.03;13.40;;;;;;;5.69;100.00;99555.88;5144314;27;20220;-79
2022/03/05 10:31:11;;;;;;;19.27;12.77;;;;;;;5.75;100.00;99550.41;5168970;27;20197;-79
2022/03/05 10:33:41;;;;;;;18.80;12.23;;;;;;;5.16;100.00;99553.47;5166880;27;20675;-79
2022/03/05 10:36:17;;;;;;;19.90;12.37;;;;;;;5.51;100.00;99546.94;5167085;27;20632;-78
2022/03/05 10:38:56;;;;;;;19.00;12.27;;;;;;;5.58;100.00;99547.56;5170507;27;20188;-78
2022/03/05 10:41:33;;;;;;;18.40;11.83;;;;;;;5.92;100.00;99545.41;5113650;28;20219;-79
2022/03/05 10:44:11;;;;;;;17.67;11.93;;;;;;;5.57;100.00;99551.94;5111392;28;20234;-78
2022/03/05 10:46:42;;;;;;;20.77;12.17;;;;;;;5.95;100.00;99540.00;5037388;28;20193;-79
2022/03/05 10:49:15;;;;;;;18.00;11.93;;;;;;;5.79;98.30;99543.25;5049058;28;20594;-79
2022/03/05 10:51:45;;;;;;;18.30;11.50;;;;;;;5.59;100.00;99536.13;5046782;28;20196;-78
2022/03/05 10:54:26;;;;;;;17.03;12.00;;;;;;;5.31;98.95;99538.94;5046909;28;20204;-78
2022/03/05 10:56:56;;;;;;;18.63;11.30;;;;;;;5.93;98.53;99533.97;5052858;28;20188;-78
2022/03/05 10:59:25;;;;;;;16.77;10.77;;;;;;;6.50;96.00;99536.94;5045594;28;20193;-79
2022/03/05 11:01:53;;;;;;;17.87;10.73;;;;;;;6.10;93.17;99532.44;5042539;28;20305;-79
2022/03/05 11:04:22;;;;;;;15.33;9.90;;;;;;;6.50;89.72;99537.81;5045537;28;20247;-79
2022/03/05 11:06:51;;;;;;;16.90;10.67;;;;;;;6.63;87.87;99530.25;5080185;28;20191;-78
2022/03/05 11:09:24;;;;;;;15.40;10.03;;;;;;;7.21;81.84;99535.63;5081768;28;20282;-79
2022/03/05 11:11:55;;;;;;;16.20;10.57;;;;;;;7.79;79.45;99526.88;5089590;28;20196;-78
2022/03/05 11:14:24;;;;;;;15.57;10.57;;;;;;;8.31;74.94;99530.53;5087396;28;20196;-79
2022/03/05 11:16:53;;;;;;;18.23;10.77;;;;;;;7.81;75.54;99531.13;5089276;28;20192;-79
2022/03/05 11:19:23;;;;;;;16.83;10.40;;;;;;;8.49;72.67;99523.50;5070550;28;20189;-79
2022/03/05 11:21:54;;;;;;;17.87;11.97;;;;;;;7.68;73.63;99530.00;5072534;28;20216;-79
2022/03/05 11:24:30;;;;;;;16.33;10.30;;;;;;;8.29;72.17;99530.56;5115101;27;20222;-79
2022/03/05 11:27:01;;;;;;;16.13;10.03;;;;;;;8.86;68.74;99526.00;5149285;27;20189;-79
2022/03/05 11:29:55;;;;;;;16.20;10.47;;;;;;;9.42;66.67;99523.97;5136125;27;20197;-79
2022/03/05 11:32:32;;;;;;;18.10;11.57;;;;;;;9.10;66.65;99515.13;5151329;27;20209;-79
2022/03/05 11:35:07;;;;;;;17.33;11.20;;;;;;;9.16;65.18;99525.34;5153451;27;20612;-79
2022/03/05 11:37:41;;;;;;;15.20;10.53;;;;;;;9.87;63.80;99525.06;5149781;27;20197;-79
2022/03/05 11:40:35;;;;;;;18.60;11.90;;;;;;;10.51;62.28;99513.50;5155562;27;20193;-79